createdAt,value
2024-03-15T00:01:13.662Z,4.22
2024-03-15T00:03:40.212Z,6.47
2024-03-15T00:06:06.823Z,4.15
2024-03-15T00:08:34.048Z,3.60
2024-03-15T00:11:00.721Z,4.25
2024-03-15T00:13:27.405Z,3.22
2024-03-15T00:15:54.195Z,6.05
2024-03-15T00:20:47.903Z,4.20
2024-03-15T00:23:14.469Z,4.72
2024-03-15T00:28:09.790Z,8.57
2024-03-15T00:30:36.408Z,8.20
2024-03-15T00:33:03.322Z,5.80
2024-03-15T00:35:30.069Z,3.88
2024-03-15T00:37:56.665Z,4.80
2024-03-15T00:42:49.879Z,4.55
2024-03-15T00:45:16.570Z,3.95
2024-03-15T00:47:43.237Z,5.80
2024-03-15T00:52:39.107Z,4.20
2024-03-15T00:55:07.529Z,5.30
2024-03-15T00:57:34.129Z,5.78
2024-03-15T01:02:30.592Z,3.05
2024-03-15T01:04:57.942Z,4.38
2024-03-15T01:09:51.014Z,4.18
2024-03-15T01:14:44.161Z,4.30
2024-03-15T01:19:37.194Z,8.27
2024-03-15T01:22:03.773Z,4.18
2024-03-15T01:24:30.958Z,4.25
2024-03-15T01:26:58.240Z,4.70
2024-03-15T01:29:25.922Z,4.07
2024-03-15T01:31:52.769Z,4.32
2024-03-15T01:34:20.330Z,4.30
2024-03-15T01:36:46.980Z,4.70
2024-03-15T01:44:08.360Z,4.18
2024-03-15T01:46:36.598Z,4.55
2024-03-15T01:49:03.330Z,3.45
2024-03-15T01:51:31.970Z,4.22
2024-03-15T01:54:01.489Z,3.50
2024-03-15T01:56:28.928Z,7.05
2024-03-15T01:58:56.191Z,4.10
2024-03-15T02:01:22.920Z,4.15
2024-03-15T02:06:16.280Z,5.18
2024-03-15T02:08:43.016Z,3.90
2024-03-15T02:13:37.250Z,3.40
2024-03-15T02:16:04.041Z,4.78
2024-03-15T02:18:32.127Z,4.35
2024-03-15T02:20:58.773Z,4.07
2024-03-15T02:23:28.640Z,6.95
2024-03-15T02:25:56.988Z,5.38
2024-03-15T02:33:17.117Z,3.45
2024-03-15T02:38:12.203Z,4.60
2024-03-15T02:40:38.790Z,3.78
2024-03-15T02:43:05.325Z,4.63
2024-03-15T02:45:32.120Z,6.70
2024-03-15T02:47:59.630Z,3.33
2024-03-15T02:50:26.251Z,3.70
2024-03-15T02:52:56.743Z,5.15
2024-03-15T02:55:23.392Z,4.00
2024-03-15T02:57:50.031Z,4.20
2024-03-15T03:02:43.262Z,3.38
2024-03-15T03:05:10.537Z,3.35
2024-03-15T03:07:37.319Z,3.78
2024-03-15T03:10:05.323Z,4.72
2024-03-15T03:12:33.652Z,3.95
2024-03-15T03:15:00.784Z,6.45
2024-03-15T03:17:27.423Z,4.30
2024-03-15T03:19:53.974Z,3.35
2024-03-15T03:22:20.533Z,4.70
2024-03-15T03:24:49.122Z,5.90
2024-03-15T03:27:16.024Z,5.00
2024-03-15T03:34:40.040Z,4.95
2024-03-15T03:37:06.604Z,4.35
2024-03-15T03:39:34.595Z,7.93
2024-03-15T03:42:04.016Z,4.63
2024-03-15T03:44:30.581Z,5.20
2024-03-15T03:46:57.137Z,8.20
2024-03-15T03:49:23.697Z,4.07
2024-03-15T03:51:50.394Z,4.15
2024-03-15T03:56:43.682Z,4.15
2024-03-15T03:59:10.222Z,4.10
2024-03-15T04:01:37.012Z,3.30
2024-03-15T04:06:30.592Z,3.88
2024-03-15T04:08:57.531Z,3.58
2024-03-15T04:11:24.402Z,5.82
2024-03-15T04:13:53.452Z,5.50
2024-03-15T04:16:20.277Z,4.57
2024-03-15T04:18:47.419Z,3.65
2024-03-15T04:21:14.819Z,4.55
2024-03-15T04:23:41.398Z,5.53
2024-03-15T04:26:08.235Z,5.38
2024-03-15T04:28:36.101Z,4.75
2024-03-15T04:31:06.736Z,3.72
2024-03-15T04:33:34.506Z,3.80
2024-03-15T04:36:09.893Z,5.07
2024-03-15T04:38:36.448Z,3.28
2024-03-15T04:41:11.358Z,5.47
2024-03-15T04:43:38.177Z,5.72
2024-03-15T04:46:05.613Z,3.60
2024-03-15T04:48:41.428Z,4.25
2024-03-15T04:51:08.126Z,5.13
2024-03-15T04:53:34.728Z,8.20
2024-03-15T04:56:01.284Z,5.63
2024-03-15T04:58:29.928Z,4.65
2024-03-15T05:00:56.591Z,5.22
2024-03-15T05:05:51.347Z,5.78
2024-03-15T05:08:17.956Z,6.55
2024-03-15T05:10:44.733Z,3.85
2024-03-15T05:13:11.394Z,5.05
2024-03-15T05:15:38.986Z,5.38
2024-03-15T05:18:06.766Z,6.20
2024-03-15T05:20:34.472Z,5.65
2024-03-15T05:23:01.263Z,6.32
2024-03-15T05:27:54.393Z,6.50
2024-03-15T05:30:21.259Z,5.15
2024-03-15T05:32:47.924Z,4.47
2024-03-15T05:37:50.970Z,5.05
2024-03-15T05:40:19.517Z,5.07
2024-03-15T05:42:46.320Z,4.72
2024-03-15T05:48:43.232Z,4.75
2024-03-15T05:51:09.880Z,6.47
2024-03-15T05:56:04.196Z,5.03
2024-03-15T05:58:31.513Z,5.50
2024-03-15T06:00:58.205Z,4.15
2024-03-15T06:05:52.087Z,5.78
2024-03-15T06:08:18.680Z,7.10
2024-03-15T06:10:45.288Z,4.15
2024-03-15T06:13:12.093Z,4.78
2024-03-15T06:15:40.187Z,6.68
2024-03-15T06:18:07.700Z,6.80
2024-03-15T06:20:34.366Z,6.50
2024-03-15T06:25:27.485Z,6.20
2024-03-15T06:27:54.110Z,4.75
2024-03-15T06:32:48.020Z,6.22
2024-03-15T06:35:20.712Z,4.75
2024-03-15T06:37:47.746Z,5.63
2024-03-15T06:40:20.649Z,6.68
2024-03-15T06:43:10.942Z,5.75
2024-03-15T06:45:54.264Z,5.63
2024-03-15T06:48:34.494Z,7.75
2024-03-15T06:53:50.205Z,4.22
2024-03-15T06:56:17.464Z,5.38
2024-03-15T06:58:58.149Z,4.60
2024-03-15T07:01:29.464Z,3.92
2024-03-15T07:04:02.034Z,4.30
2024-03-15T07:06:32.239Z,4.50
2024-03-15T07:08:59.028Z,4.13
2024-03-15T07:14:04.764Z,4.72
2024-03-15T07:16:32.104Z,5.45
2024-03-15T07:19:00.847Z,3.95
2024-03-15T07:21:27.722Z,6.13
2024-03-15T07:23:54.525Z,5.90
2024-03-15T07:26:21.338Z,3.85
2024-03-15T07:28:49.161Z,5.65
2024-03-15T07:31:16.006Z,5.15
2024-03-15T07:33:43.189Z,5.97
2024-03-15T07:36:16.299Z,6.13
2024-03-15T07:38:43.063Z,5.20
2024-03-15T07:43:41.584Z,6.30
2024-03-15T07:46:09.953Z,4.90
2024-03-15T07:48:37.158Z,6.03
2024-03-15T07:51:04.151Z,4.60
2024-03-15T07:53:30.886Z,4.53
2024-03-15T07:55:57.612Z,7.40
2024-03-15T07:58:25.247Z,4.20
2024-03-15T08:00:52.746Z,6.70
2024-03-15T08:03:20.355Z,6.80
2024-03-15T08:05:50.147Z,6.78
2024-03-15T08:08:22.448Z,6.20
2024-03-15T08:10:49.187Z,7.70
2024-03-15T08:13:19.099Z,4.13
2024-03-15T08:15:46.772Z,6.10
2024-03-15T08:18:15.585Z,3.63
2024-03-15T08:20:42.405Z,3.85
2024-03-15T08:23:10.840Z,4.97
2024-03-15T08:25:38.718Z,3.22
2024-03-15T08:28:09.258Z,5.10
2024-03-15T08:30:36.138Z,4.05
2024-03-15T08:33:04.411Z,4.10
2024-03-15T08:35:31.214Z,5.13
2024-03-15T08:38:00.264Z,3.95
2024-03-15T08:40:27.014Z,4.63
2024-03-15T08:42:53.708Z,3.78
2024-03-15T08:45:23.272Z,3.67
2024-03-15T08:47:59.127Z,4.25
2024-03-15T08:50:35.206Z,5.80
2024-03-15T08:53:04.485Z,4.97
2024-03-15T08:55:33.320Z,3.60
2024-03-15T08:58:00.294Z,4.72
2024-03-15T09:00:27.118Z,7.93
2024-03-15T09:02:56.412Z,3.75
2024-03-15T09:05:23.481Z,6.68
2024-03-15T09:07:51.587Z,3.85
2024-03-15T09:10:18.440Z,3.15
2024-03-15T09:12:46.243Z,6.43
2024-03-15T09:15:14.816Z,5.25
2024-03-15T09:17:43.404Z,4.78
2024-03-15T09:20:23.502Z,2.67
2024-03-15T09:22:53.936Z,3.35
2024-03-15T09:25:23.705Z,3.65
2024-03-15T09:27:55.199Z,2.88
2024-03-15T09:30:31.229Z,3.63
2024-03-15T09:32:59.465Z,2.42
2024-03-15T09:35:29.533Z,2.30
2024-03-15T09:37:56.706Z,1.90
2024-03-15T09:40:28.390Z,3.03
2024-03-15T09:42:55.984Z,2.90
2024-03-15T09:45:25.496Z,3.88
2024-03-15T09:47:53.463Z,3.20
2024-03-15T09:50:30.995Z,1.58
2024-03-15T09:52:59.189Z,2.20
2024-03-15T09:55:26.016Z,1.23
2024-03-15T09:57:52.864Z,1.40
2024-03-15T10:00:25.860Z,1.52
2024-03-15T10:02:54.884Z,2.80
2024-03-15T10:05:23.027Z,1.58
2024-03-15T10:07:51.107Z,1.92
2024-03-15T10:10:21.419Z,3.08
2024-03-15T10:12:53.057Z,1.58
2024-03-15T10:15:22.515Z,1.90
2024-03-15T10:17:55.729Z,3.05
2024-03-15T10:20:25.359Z,0.93
2024-03-15T10:22:54.350Z,1.00
2024-03-15T10:25:25.782Z,1.10
2024-03-15T10:27:57.196Z,1.92
2024-03-15T10:30:30.077Z,2.28
2024-03-15T10:33:01.685Z,2.15
2024-03-15T10:35:29.145Z,1.50
2024-03-15T10:37:56.859Z,2.17
2024-03-15T10:40:26.821Z,1.10
2024-03-15T10:43:02.543Z,1.67
2024-03-15T10:45:30.475Z,1.33
2024-03-15T10:47:59.139Z,1.58
2024-03-15T10:50:29.093Z,2.45
2024-03-15T10:52:58.080Z,1.25
2024-03-15T10:55:29.802Z,1.20
2024-03-15T10:58:06.377Z,1.60
2024-03-15T11:00:34.067Z,1.20
2024-03-15T11:03:27.445Z,2.30
2024-03-15T11:05:54.802Z,1.30
2024-03-15T11:08:22.777Z,1.30
2024-03-15T11:10:58.386Z,2.17
2024-03-15T11:13:26.315Z,3.63
2024-03-15T11:15:59.768Z,1.02
2024-03-15T11:18:39.030Z,2.40
2024-03-15T11:21:05.956Z,1.10
2024-03-15T11:23:37.331Z,1.60
2024-03-15T11:26:09.639Z,2.22
2024-03-15T11:28:38.775Z,1.58
2024-03-15T11:31:18.211Z,2.00
2024-03-15T11:33:45.807Z,1.88
2024-03-15T11:36:13.115Z,1.52
2024-03-15T11:38:48.968Z,1.98
2024-03-15T11:41:15.712Z,2.15
2024-03-15T11:43:45.650Z,1.38
2024-03-15T11:46:12.649Z,2.38
2024-03-15T11:48:39.435Z,1.60
2024-03-15T11:51:06.871Z,1.20
2024-03-15T11:53:39.006Z,3.05
2024-03-15T11:56:08.624Z,1.95
2024-03-15T11:58:42.154Z,1.92
2024-03-15T12:01:09.356Z,1.75
2024-03-15T12:03:36.317Z,1.20
2024-03-15T12:06:03.376Z,1.88
2024-03-15T12:08:32.161Z,2.42
2024-03-15T12:10:58.921Z,1.30
2024-03-15T12:13:27.413Z,2.88
2024-03-15T12:15:55.246Z,2.20
2024-03-15T12:18:24.840Z,1.65
2024-03-15T12:20:53.088Z,1.77
2024-03-15T12:23:21.904Z,1.48
2024-03-15T12:25:49.803Z,2.08
2024-03-15T12:28:21.799Z,2.78
2024-03-15T12:30:55.076Z,3.13
2024-03-15T12:33:22.083Z,1.65
2024-03-15T12:35:51.286Z,1.20
2024-03-15T12:38:20.012Z,1.85
2024-03-15T12:40:46.921Z,2.15
2024-03-15T12:43:13.818Z,4.57
2024-03-15T12:45:43.067Z,3.75
2024-03-15T12:48:11.341Z,2.22
2024-03-15T12:50:38.288Z,2.63
2024-03-15T12:53:08.849Z,2.38
2024-03-15T12:55:35.665Z,2.28
2024-03-15T12:58:02.570Z,1.85
2024-03-15T13:00:32.309Z,4.78
2024-03-15T13:02:59.219Z,1.55
2024-03-15T13:05:27.081Z,1.63
2024-03-15T13:07:53.862Z,3.05
2024-03-15T13:10:24.189Z,0.90
2024-03-15T13:12:53.568Z,1.02
2024-03-15T13:15:21.268Z,1.92
2024-03-15T13:17:54.285Z,2.90
2024-03-15T13:20:23.234Z,0.75
2024-03-15T13:22:56.398Z,2.17
2024-03-15T13:25:34.390Z,1.75
2024-03-15T13:28:09.405Z,1.42
2024-03-15T13:30:38.468Z,2.35
2024-03-15T13:33:08.216Z,0.82
2024-03-15T13:35:38.489Z,1.15
2024-03-15T13:38:05.469Z,2.78
2024-03-15T13:40:33.799Z,2.45
2024-03-15T13:43:00.949Z,2.15
2024-03-15T13:45:27.879Z,3.58
2024-03-15T13:47:56.177Z,1.95
2024-03-15T13:50:23.385Z,2.80
2024-03-15T13:52:53.779Z,3.10
2024-03-15T13:55:22.498Z,2.38
2024-03-15T13:57:52.139Z,4.38
2024-03-15T14:00:34.071Z,1.52
2024-03-15T14:03:03.797Z,2.28
2024-03-15T14:05:39.601Z,1.83
2024-03-15T14:08:08.684Z,1.63
2024-03-15T14:10:36.160Z,5.18
2024-03-15T14:13:07.137Z,1.70
2024-03-15T14:15:40.644Z,2.30
2024-03-15T14:18:09.954Z,4.38
2024-03-15T14:20:37.908Z,1.17
2024-03-15T14:23:05.383Z,2.08
2024-03-15T14:25:35.411Z,1.63
2024-03-15T14:28:07.105Z,0.77
2024-03-15T14:30:36.631Z,3.78
2024-03-15T14:33:05.411Z,2.25
2024-03-15T14:35:32.192Z,2.67
2024-03-15T14:37:59.797Z,2.28
2024-03-15T14:40:27.846Z,1.00
2024-03-15T14:42:55.747Z,2.95
2024-03-15T14:45:35.083Z,2.15
2024-03-15T14:48:07.665Z,1.50
2024-03-15T14:50:43.851Z,3.30
2024-03-15T14:53:10.975Z,2.22
2024-03-15T14:55:45.651Z,1.98
2024-03-15T14:58:14.613Z,1.45
2024-03-15T15:00:46.268Z,1.40
2024-03-15T15:03:13.243Z,1.98
2024-03-15T15:05:41.386Z,3.90
2024-03-15T15:08:10.461Z,2.40
2024-03-15T15:10:42.247Z,1.88
2024-03-15T15:13:14.529Z,1.13
2024-03-15T15:15:42.367Z,1.77
2024-03-15T15:18:13.783Z,1.90
2024-03-15T15:20:43.405Z,6.53
2024-03-15T15:23:12.713Z,2.67
2024-03-15T15:25:39.473Z,2.40
2024-03-15T15:28:06.566Z,2.75
2024-03-15T15:30:36.648Z,3.45
2024-03-15T15:33:05.999Z,2.92
2024-03-15T15:35:33.650Z,1.75
2024-03-15T15:38:00.485Z,2.60
2024-03-15T15:40:31.152Z,2.08
2024-03-15T15:43:01.734Z,3.50
2024-03-15T15:45:34.008Z,4.22
2024-03-15T15:48:04.213Z,3.72
2024-03-15T15:50:31.035Z,2.22
2024-03-15T15:53:11.253Z,2.88
2024-03-15T15:55:38.689Z,1.17
2024-03-15T15:58:05.983Z,1.90
2024-03-15T16:00:33.070Z,1.83
2024-03-15T16:03:01.491Z,2.05
2024-03-15T16:05:29.200Z,1.88
2024-03-15T16:07:57.175Z,1.63
2024-03-15T16:10:24.746Z,1.65
2024-03-15T16:12:51.560Z,1.77
2024-03-15T16:15:18.276Z,3.28
2024-03-15T16:17:45.020Z,2.40
2024-03-15T16:20:14.718Z,4.32
2024-03-15T16:22:41.843Z,4.30
2024-03-15T16:25:09.528Z,2.55
2024-03-15T16:27:41.586Z,4.00
2024-03-15T16:30:08.714Z,2.72
2024-03-15T16:32:35.883Z,4.65
2024-03-15T16:35:11.123Z,2.63
2024-03-15T16:37:45.071Z,2.17
2024-03-15T16:40:11.987Z,4.43
2024-03-15T16:42:38.752Z,5.55
2024-03-15T16:45:07.363Z,2.85
2024-03-15T16:47:34.305Z,7.82
2024-03-15T16:50:00.983Z,8.43
2024-03-15T16:52:28.153Z,6.45
2024-03-15T16:54:54.824Z,3.90
2024-03-15T16:57:23.012Z,4.13
2024-03-15T16:59:50.380Z,3.95
2024-03-15T17:02:17.340Z,2.30
2024-03-15T17:04:47.058Z,3.22
2024-03-15T17:07:13.987Z,2.28
2024-03-15T17:09:40.799Z,3.58
2024-03-15T17:12:08.120Z,3.40
2024-03-15T17:14:34.802Z,5.90
2024-03-15T17:17:01.444Z,2.88
2024-03-15T17:21:55.960Z,2.33
2024-03-15T17:24:29.857Z,0.90
2024-03-15T17:26:58.748Z,2.83
2024-03-15T17:29:25.498Z,4.13
2024-03-15T17:31:52.471Z,3.10
2024-03-15T17:34:20.164Z,3.13
2024-03-15T17:36:46.947Z,3.20
2024-03-15T17:39:16.966Z,2.80
2024-03-15T17:41:44.638Z,3.65
2024-03-15T17:44:12.179Z,2.05
2024-03-15T17:46:39.012Z,2.72
2024-03-15T17:49:06.957Z,5.28
2024-03-15T17:51:34.906Z,2.85
2024-03-15T17:54:01.691Z,3.30
2024-03-15T17:56:28.477Z,4.22
2024-03-15T17:58:55.244Z,3.10
2024-03-15T18:01:24.904Z,2.88
2024-03-15T18:03:53.426Z,5.07
2024-03-15T18:06:20.825Z,4.28
2024-03-15T18:08:48.483Z,2.13
2024-03-15T18:11:15.254Z,2.10
2024-03-15T18:13:42.170Z,0.82
2024-03-15T18:16:09.860Z,2.10
2024-03-15T18:18:36.787Z,2.53
2024-03-15T18:21:04.650Z,3.08
2024-03-15T18:23:32.678Z,1.70
2024-03-15T18:25:59.897Z,1.80
2024-03-15T18:28:28.088Z,1.60
2024-03-15T18:30:55.288Z,4.30
2024-03-15T18:33:22.216Z,3.15
2024-03-15T18:35:53.602Z,2.80
2024-03-15T18:38:24.696Z,1.25
2024-03-15T18:40:51.746Z,2.90
2024-03-15T18:43:19.636Z,3.30
2024-03-15T18:45:49.018Z,2.10
2024-03-15T18:48:15.832Z,1.60
2024-03-15T18:50:43.230Z,2.38
2024-03-15T18:53:10.059Z,2.08
2024-03-15T18:55:38.965Z,2.70
2024-03-15T18:58:06.148Z,1.60
2024-03-15T19:00:34.910Z,4.40
2024-03-15T19:03:03.794Z,2.00
2024-03-15T19:05:33.721Z,0.98
2024-03-15T19:08:00.617Z,1.55
2024-03-15T19:10:27.817Z,1.45
2024-03-15T19:12:54.713Z,1.27
2024-03-15T19:15:26.182Z,2.80
2024-03-15T19:17:53.218Z,2.35
2024-03-15T19:20:20.468Z,2.92
2024-03-15T19:22:48.466Z,1.88
2024-03-15T19:25:15.516Z,1.65
2024-03-15T19:27:45.107Z,1.85
2024-03-15T19:30:12.641Z,1.55
2024-03-15T19:32:39.636Z,1.75
2024-03-15T19:35:08.714Z,2.20
2024-03-15T19:37:36.454Z,2.75
2024-03-15T19:40:05.744Z,2.28
2024-03-15T19:42:33.267Z,1.58
2024-03-15T19:45:00.115Z,5.18
2024-03-15T19:47:38.906Z,3.83
2024-03-15T19:50:05.902Z,1.20
2024-03-15T19:52:35.868Z,2.85
2024-03-15T19:55:03.283Z,2.50
2024-03-15T19:57:30.408Z,4.10
2024-03-15T19:59:57.292Z,2.33
2024-03-15T20:02:25.256Z,2.35
2024-03-15T20:04:52.150Z,1.80
2024-03-15T20:07:21.528Z,2.03
2024-03-15T20:09:49.147Z,2.97
2024-03-15T20:12:15.989Z,3.03
2024-03-15T20:14:43.125Z,3.72
2024-03-15T20:17:10.388Z,2.85
2024-03-15T20:19:37.413Z,4.15
2024-03-15T20:22:06.460Z,5.45
2024-03-15T20:24:34.994Z,4.00
2024-03-15T20:27:01.873Z,2.72
2024-03-15T20:29:30.509Z,1.85
2024-03-15T20:31:57.408Z,6.15
2024-03-15T20:34:26.617Z,3.25
2024-03-15T20:36:54.177Z,3.15
2024-03-15T20:39:23.793Z,2.08
2024-03-15T20:41:53.913Z,2.10
2024-03-15T20:44:23.157Z,3.38
2024-03-15T20:46:50.622Z,1.63
2024-03-15T20:49:18.650Z,1.55
2024-03-15T20:52:05.944Z,2.05
2024-03-15T20:54:37.103Z,1.55
2024-03-15T20:57:04.127Z,2.13
2024-03-15T20:59:31.630Z,2.67
2024-03-15T21:02:10.141Z,3.88
2024-03-15T21:04:39.452Z,2.25
2024-03-15T21:07:09.220Z,3.75
2024-03-15T21:09:36.799Z,3.97
2024-03-15T21:12:03.966Z,2.22
2024-03-15T21:14:31.027Z,3.92
2024-03-15T21:17:00.262Z,1.85
2024-03-15T21:19:27.871Z,3.50
2024-03-15T21:21:54.710Z,1.90
2024-03-15T21:24:21.511Z,4.28
2024-03-15T21:29:14.994Z,2.50
2024-03-15T21:34:08.737Z,4.75
2024-03-15T21:36:38.140Z,3.58
2024-03-15T21:39:13.427Z,4.45
2024-03-15T21:41:41.836Z,3.35
2024-03-15T21:44:09.295Z,3.85
2024-03-15T21:46:37.088Z,5.03
2024-03-15T21:49:06.359Z,2.30
2024-03-15T21:51:33.440Z,3.30
2024-03-15T21:54:00.533Z,1.80
2024-03-15T21:56:29.785Z,2.55
2024-03-15T21:59:03.515Z,3.92
2024-03-15T22:01:35.044Z,2.78
2024-03-15T22:04:07.964Z,1.65
2024-03-15T22:06:40.071Z,2.22
2024-03-15T22:09:07.371Z,1.98
2024-03-15T22:11:35.403Z,3.00
2024-03-15T22:14:07.806Z,2.80
2024-03-15T22:16:34.991Z,3.22
2024-03-15T22:19:02.101Z,2.53
2024-03-15T22:21:29.174Z,1.33
2024-03-15T22:23:56.024Z,3.03
2024-03-15T22:26:22.975Z,2.33
2024-03-15T22:31:18.900Z,2.22
2024-03-15T22:33:45.682Z,1.90
2024-03-15T22:38:40.296Z,1.88
2024-03-15T22:41:10.138Z,3.95
2024-03-15T22:43:36.960Z,3.33
2024-03-15T22:48:30.712Z,3.78
2024-03-15T22:50:57.892Z,2.65
2024-03-15T22:53:24.627Z,2.10
2024-03-15T22:55:51.913Z,2.33
2024-03-15T22:58:18.717Z,3.15
2024-03-15T23:03:16.476Z,2.45
2024-03-15T23:05:45.007Z,4.70
2024-03-15T23:08:13.937Z,2.08
2024-03-15T23:10:45.296Z,4.05
2024-03-15T23:13:12.729Z,2.60
2024-03-15T23:15:42.494Z,2.30
2024-03-15T23:18:09.264Z,2.00
2024-03-15T23:23:06.170Z,1.33
2024-03-15T23:25:33.524Z,1.02
2024-03-15T23:28:00.337Z,1.88
2024-03-15T23:32:55.952Z,0.80
2024-03-15T23:35:22.748Z,0.68
2024-03-15T23:37:52.106Z,1.35
2024-03-15T23:40:19.655Z,2.95
2024-03-15T23:42:46.897Z,1.08
2024-03-15T23:45:16.867Z,2.10
2024-03-15T23:47:43.797Z,2.15
2024-03-15T23:50:10.847Z,0.68
2024-03-15T23:52:37.796Z,1.88
2024-03-15T23:55:09.157Z,0.82
2024-03-15T23:57:40.948Z,0.45
